TAF Text Data
IDs:
Format:
Raw Decoded Include METAR

Data at: 1243 UTC 19 Feb 2020

METAR for:KTOB (Dodge Center Arpt, MN, US)
Text:KTOB 191236Z AUTO 28004KT 10SM SCT090 M21/M23 A3058 RMK AO2
Temperature:-21.0°C ( -6°F)
Dewpoint:-23.0°C ( -9°F) [RH = 84%]
Pressure (altimeter):30.58 inches Hg (1035.6 mb)
Winds:from the W (280 degrees) at 5 MPH (4 knots; 2.1 m/s)
Visibility:10 or more sm (16+ km)
Ceiling:at least 12,000 feet AGL
Clouds: scattered clouds at 9000 feet AGL
QC Flag:automated observation with no human augmentation

TAF for:KTOB (Dodge Center Arpt, MN, US)
Text:No data found